Time;durP1;ratioP1;P1;durP2;ratioP2;P2;SDS_P1;SDS_P2;PMS_P1;PMS_P2;Temp;Humidity;BMP_temperature;BMP_pressure;BME280_temperature;BME280_humidity;BME280_pressure;Samples;Min_cycle;Max_cycle;Signal;HPM_P1;HPM_P2
2021/03/31 00:01:18;;;;;;;2.7;0.8;;;;;;;7.57;65.77832;948.2039;;;;
2021/03/31 00:03:43;;;;;;;1;0.7;;;;;;;7.53;65.81836;948.1575;;;;
2021/03/31 00:06:08;;;;;;;5.1;0.7;;;;;;;7.48;65.96973;948.1074;;;;
2021/03/31 00:08:34;;;;;;;4.1;1.3;;;;;;;7.48;65.11914;948.1138;;;;
2021/03/31 00:10:59;;;;;;;1.4;0.9;;;;;;;7.59;65.37305;948.1586;;;;
2021/03/31 00:13:30;;;;;;;4.7;0.8;;;;;;;7.42;65.54102;948.1152;;;;
2021/03/31 00:15:55;;;;;;;5.6;0.9;;;;;;;7.29;66.41797;948.0754;;;;
2021/03/31 00:18:24;;;;;;;5.2;1.2;;;;;;;7.19;67.06934;948.0958;;;;
2021/03/31 00:20:55;;;;;;;0.9;0.6;;;;;;;7.17;67.15723;948.0056;;;;
2021/03/31 00:23:20;;;;;;;0.9;0.5;;;;;;;7.09;67.66406;947.9928;;;;
2021/03/31 00:25:48;;;;;;;5;0.7;;;;;;;7.04;67.84961;947.9783;;;;
2021/03/31 00:28:15;;;;;;;1.2;0.7;;;;;;;7.01;67.9248;947.9354;;;;
2021/03/31 00:30:40;;;;;;;1.2;0.7;;;;;;;6.96;68.16699;947.9324;;;;
2021/03/31 00:33:07;;;;;;;0.7;0.6;;;;;;;6.84;68.66699;947.8667;;;;
2021/03/31 00:35:32;;;;;;;2.1;0.9;;;;;;;6.86;68.5459;947.8992;;;;
2021/03/31 00:37:57;;;;;;;0.9;0.8;;;;;;;6.79;68.5459;947.8653;;;;
2021/03/31 00:40:22;;;;;;;2.2;0.9;;;;;;;6.77;68.48633;947.7955;;;;
2021/03/31 00:42:47;;;;;;;1.9;0.6;;;;;;;6.86;68.02637;947.8344;;;;
2021/03/31 00:45:14;;;;;;;2.7;0.9;;;;;;;6.68;68.41602;947.8532;;;;
2021/03/31 00:47:39;;;;;;;1.5;0.8;;;;;;;6.7;68.49707;947.8602;;;;
2021/03/31 00:50:04;;;;;;;2.2;0.9;;;;;;;6.61;68.87988;947.8328;;;;
2021/03/31 00:52:29;;;;;;;2.9;0.9;;;;;;;6.51;69.34863;947.8475;;;;
2021/03/31 00:54:56;;;;;;;2;1;;;;;;;6.53;69.22852;947.8398;;;;
2021/03/31 00:57:21;;;;;;;1.2;0.8;;;;;;;6.51;69.38281;947.7717;;;;
2021/03/31 00:59:47;;;;;;;3.4;1.4;;;;;;;6.4;69.85352;947.783;;;;
2021/03/31 01:02:12;;;;;;;0.8;0.7;;;;;;;6.32;70.23535;947.7496;;;;
2021/03/31 01:04:39;;;;;;;1.7;0.9;;;;;;;6.25;70.25781;947.6984;;;;
2021/03/31 01:07:04;;;;;;;0.8;0.7;;;;;;;6.18;70.52832;947.6722;;;;
2021/03/31 01:09:30;;;;;;;0.5;0.4;;;;;;;6.28;67.79785;947.7123;;;;
2021/03/31 01:11:56;;;;;;;1.1;0.7;;;;;;;6.41;69.44629;947.6608;;;;
2021/03/31 01:14:21;;;;;;;4.6;2.9;;;;;;;6.4;69.41211;947.6998;;;;
2021/03/31 01:16:55;;;;;;;4.9;1.6;;;;;;;6.29;69.85645;947.5212;;;;
2021/03/31 01:19:23;;;;;;;1;0.7;;;;;;;6.25;69.92969;947.6588;;;;
2021/03/31 01:23:25;;;;;;;2.6;1;;;;;;;6.24;70.02832;947.6094;;;;
2021/03/31 01:25:50;;;;;;;1.2;0.8;;;;;;;6.22;69.93555;947.5959;;;;
2021/03/31 01:28:15;;;;;;;1.5;0.7;;;;;;;6.17;70.12012;947.6267;;;;
2021/03/31 01:30:47;;;;;;;1.4;1.1;;;;;;;6.32;69.66992;947.6333;;;;
2021/03/31 01:33:15;;;;;;;1;0.8;;;;;;;6.3;69.50781;947.6022;;;;
2021/03/31 01:35:45;;;;;;;1.6;1.1;;;;;;;6.26;69.7373;947.5461;;;;
2021/03/31 01:38:15;;;;;;;1.3;0.8;;;;;;;6.29;69.3125;947.6033;;;;
2021/03/31 01:40:40;;;;;;;0.6;0.6;;;;;;;6.26;69.30859;947.5634;;;;
2021/03/31 01:43:06;;;;;;;0.7;0.6;;;;;;;6.34;69.0498;947.5477;;;;
2021/03/31 01:45:32;;;;;;;1.6;1;;;;;;;6.1;69.89355;947.5481;;;;
2021/03/31 01:47:57;;;;;;;2.9;0.5;;;;;;;6;70.25;947.5287;;;;
2021/03/31 01:50:24;;;;;;;2;1.1;;;;;;;6;70.31836;947.4818;;;;
2021/03/31 01:52:49;;;;;;;0.7;0.6;;;;;;;5.96;70.41211;947.4945;;;;
2021/03/31 01:55:17;;;;;;;0.6;0.5;;;;;;;5.91;70.83398;947.5145;;;;
2021/03/31 01:57:42;;;;;;;1.7;0.9;;;;;;;5.8;71.24316;947.5259;;;;
2021/03/31 02:00:10;;;;;;;4.1;0.8;;;;;;;5.82;70.98828;947.4727;;;;
2021/03/31 02:02:35;;;;;;;3.9;0.7;;;;;;;5.86;70.89258;947.4543;;;;
2021/03/31 02:05:00;;;;;;;1;0.8;;;;;;;6.01;70.14844;947.4442;;;;
2021/03/31 02:07:26;;;;;;;0.4;0.3;;;;;;;6.09;69.7002;947.3501;;;;
2021/03/31 02:09:52;;;;;;;1.1;0.7;;;;;;;6.16;69.22559;947.4106;;;;
2021/03/31 02:12:21;;;;;;;3.2;0.9;;;;;;;5.96;70.38965;947.383;;;;
2021/03/31 02:14:47;;;;;;;1.1;0.7;;;;;;;5.8;70.84961;947.2676;;;;
2021/03/31 02:17:24;;;;;;;2.8;0.9;;;;;;;5.8;71.0293;947.3196;;;;
2021/03/31 02:19:53;;;;;;;2.1;1.2;;;;;;;5.87;70.31934;947.2503;;;;
2021/03/31 02:22:23;;;;;;;1.7;0.8;;;;;;;5.86;70.67773;947.3137;;;;
2021/03/31 02:24:54;;;;;;;1.1;0.7;;;;;;;5.75;71.11328;947.2475;;;;
2021/03/31 02:27:19;;;;;;;1.6;1;;;;;;;5.71;71.03809;947.2567;;;;
2021/03/31 02:29:48;;;;;;;1.7;0.8;;;;;;;5.58;71.5459;947.2428;;;;
2021/03/31 02:32:13;;;;;;;3.1;1;;;;;;;5.49;71.86914;947.2794;;;;
2021/03/31 02:34:39;;;;;;;5.3;0.7;;;;;;;5.49;71.9707;947.243;;;;
2021/03/31 02:37:04;;;;;;;1.8;1;;;;;;;5.52;71.77246;947.2639;;;;
2021/03/31 02:39:30;;;;;;;2.5;1;;;;;;;5.54;71.70898;947.254;;;;
2021/03/31 02:41:56;;;;;;;1.2;0.7;;;;;;;5.4;72.14746;947.2388;;;;
2021/03/31 02:44:21;;;;;;;1.6;0.6;;;;;;;5.33;72.45313;947.1956;;;;
2021/03/31 02:46:46;;;;;;;1.2;0.9;;;;;;;5.38;72.26855;947.253;;;;
2021/03/31 02:49:11;;;;;;;0.8;0.6;;;;;;;5.33;72.49805;947.1981;;;;
2021/03/31 02:51:36;;;;;;;1.1;0.5;;;;;;;5.42;72.26367;947.2036;;;;
2021/03/31 02:54:03;;;;;;;1.7;0.9;;;;;;;5.46;72.39648;947.1408;;;;
2021/03/31 02:56:28;;;;;;;1.2;0.9;;;;;;;5.46;72.40625;947.1384;;;;
2021/03/31 02:58:57;;;;;;;1.7;0.6;;;;;;;5.55;71.9707;947.1178;;;;
2021/03/31 03:01:22;;;;;;;1.7;0.7;;;;;;;5.51;72.14453;947.0764;;;;
2021/03/31 03:03:50;;;;;;;2;1;;;;;;;5.33;72.83594;947.0985;;;;
2021/03/31 03:06:15;;;;;;;2.4;0.9;;;;;;;5.17;73.55273;947.0549;;;;
2021/03/31 03:08:40;;;;;;;2.3;0.8;;;;;;;5.11;73.85742;947.0262;;;;
2021/03/31 03:11:06;;;;;;;2.3;0.7;;;;;;;5.16;73.69824;946.989;;;;
2021/03/31 03:13:36;;;;;;;3.7;1.4;;;;;;;5.2;73.49023;947.0419;;;;
2021/03/31 03:16:12;;;;;;;2.2;1.2;;;;;;;5.06;73.92676;946.9885;;;;
2021/03/31 03:18:44;;;;;;;1.8;1;;;;;;;5.14;73.51465;946.9947;;;;
2021/03/31 03:21:16;;;;;;;6.6;1.3;;;;;;;5.21;73.1416;947.0382;;;;
2021/03/31 03:23:44;;;;;;;1.4;0.8;;;;;;;5.21;72.96191;947.0698;;;;
2021/03/31 03:26:09;;;;;;;1.8;0.9;;;;;;;5.23;72.80859;947.0483;;;;
2021/03/31 03:28:34;;;;;;;0.9;0.8;;;;;;;5.21;72.9502;947.068;;;;
2021/03/31 03:30:59;;;;;;;1.9;1.1;;;;;;;5.22;72.91797;947.0953;;;;
2021/03/31 03:33:30;;;;;;;1.5;1;;;;;;;5.13;73.11621;947.0847;;;;
2021/03/31 03:35:55;;;;;;;2.8;1.1;;;;;;;5.13;73.19727;947.118;;;;
2021/03/31 03:38:27;;;;;;;0.8;0.7;;;;;;;5.17;72.90039;947.0623;;;;
2021/03/31 03:40:52;;;;;;;4.1;1.2;;;;;;;5.21;72.69043;947.1003;;;;
2021/03/31 03:43:23;;;;;;;1.5;1.2;;;;;;;5.16;72.6377;947.1155;;;;
2021/03/31 03:45:54;;;;;;;3.2;1.6;;;;;;;5.23;72.44727;947.0151;;;;
2021/03/31 03:48:20;;;;;;;2.7;1.5;;;;;;;5.24;72.39063;947.0005;;;;
2021/03/31 03:50:48;;;;;;;2.6;1.4;;;;;;;5.18;72.49414;947.06;;;;
2021/03/31 03:53:13;;;;;;;3.3;1.8;;;;;;;4.98;73.26074;947.0639;;;;
2021/03/31 03:55:42;;;;;;;2.6;1.7;;;;;;;5.01;73.40137;947.0786;;;;
2021/03/31 03:58:11;;;;;;;3.7;2.3;;;;;;;4.95;73.57227;947.0932;;;;
2021/03/31 04:02:30;;;;;;;9.1;2.4;;;;;;;4.77;74.21484;947.0853;;;;
2021/03/31 04:04:55;;;;;;;4.2;2.1;;;;;;;4.78;74.2168;947.0709;;;;
2021/03/31 04:07:24;;;;;;;3.2;2;;;;;;;4.94;73.57031;947.0968;;;;
2021/03/31 04:09:49;;;;;;;3.8;1.8;;;;;;;4.98;73.21582;947.0383;;;;
2021/03/31 04:12:22;;;;;;;2.6;2.2;;;;;;;5.03;72.93262;947.0198;;;;
2021/03/31 04:14:55;;;;;;;2.9;1.5;;;;;;;4.92;73.43164;947.0375;;;;
2021/03/31 04:17:33;;;;;;;5.4;1.9;;;;;;;4.9;73.47363;947.0714;;;;
2021/03/31 04:20:16;;;;;;;4.6;1.9;;;;;;;4.83;73.7207;947.0343;;;;
2021/03/31 04:22:46;;;;;;;3;1.8;;;;;;;4.94;73.26465;947.0508;;;;
2021/03/31 04:25:21;;;;;;;6.7;1.9;;;;;;;4.99;73.00488;947.0328;;;;
2021/03/31 04:27:46;;;;;;;2.6;1.4;;;;;;;4.99;73.04883;947.0325;;;;
2021/03/31 04:30:12;;;;;;;2;1.4;;;;;;;4.92;73.29688;947.0429;;;;
2021/03/31 04:32:38;;;;;;;1.2;1;;;;;;;4.85;73.56641;947.0747;;;;
2021/03/31 04:35:03;;;;;;;1.7;1;;;;;;;4.77;73.99121;947.0563;;;;
2021/03/31 04:37:28;;;;;;;3.3;1.2;;;;;;;4.96;73.17871;947.0068;;;;
2021/03/31 04:39:55;;;;;;;11.6;1.7;;;;;;;4.96;73.06641;946.9832;;;;
2021/03/31 04:42:20;;;;;;;5.5;1.3;;;;;;;4.94;73.04102;947.0201;;;;
2021/03/31 04:44:48;;;;;;;2;1.2;;;;;;;5.01;72.6123;946.9604;;;;
2021/03/31 04:47:13;;;;;;;4.3;1.3;;;;;;;5.13;72.27246;947.0217;;;;
2021/03/31 04:49:45;;;;;;;3.5;1.5;;;;;;;5.02;72.45605;947.0712;;;;
2021/03/31 04:52:15;;;;;;;1.7;1.5;;;;;;;4.94;72.87207;946.9721;;;;
2021/03/31 04:54:45;;;;;;;8.4;2.6;;;;;;;4.92;73.06055;946.9854;;;;
2021/03/31 04:57:16;;;;;;;3.9;1.9;;;;;;;4.87;73.29883;947.0549;;;;
2021/03/31 04:59:44;;;;;;;11.8;3.6;;;;;;;4.84;73.30566;947.0884;;;;
2021/03/31 05:02:10;;;;;;;10.8;4.1;;;;;;;4.92;72.96973;947.0666;;;;
2021/03/31 05:04:37;;;;;;;6.7;2.9;;;;;;;5;72.46387;947.0818;;;;
2021/03/31 05:07:02;;;;;;;4.7;3;;;;;;;4.99;72.29297;946.9838;;;;
2021/03/31 05:09:27;;;;;;;4.8;1.9;;;;;;;4.87;72.49902;947.1322;;;;
2021/03/31 05:11:52;;;;;;;10.3;2.2;;;;;;;4.84;72.58398;947.0181;;;;
2021/03/31 05:14:21;;;;;;;2.1;1.5;;;;;;;4.77;73.0791;947.0692;;;;
2021/03/31 05:16:50;;;;;;;7.9;2.2;;;;;;;4.82;73.00977;947.0203;;;;
2021/03/31 05:19:19;;;;;;;1.7;1.3;;;;;;;4.86;72.75488;947.0109;;;;
2021/03/31 05:21:49;;;;;;;2.6;1.6;;;;;;;4.82;73.08789;947.1071;;;;
2021/03/31 05:24:17;;;;;;;2.2;1.3;;;;;;;4.84;73.06836;947.0497;;;;
2021/03/31 05:26:42;;;;;;;1.7;1.3;;;;;;;4.82;73.24414;947.0557;;;;
2021/03/31 05:29:09;;;;;;;4.4;2.3;;;;;;;4.87;73.14063;947.0826;;;;
2021/03/31 05:31:34;;;;;;;3.8;2.2;;;;;;;5.02;72.41211;947.0676;;;;
2021/03/31 05:34:00;;;;;;;4.4;2.3;;;;;;;5.08;72.5;947.0527;;;;
2021/03/31 05:36:25;;;;;;;1.9;1.3;;;;;;;5.19;71.96582;947.0408;;;;
2021/03/31 05:38:51;;;;;;;6;1.7;;;;;;;5.18;72.05469;946.9567;;;;
2021/03/31 05:41:16;;;;;;;4.9;1.2;;;;;;;5.19;72.89063;947.0715;;;;
2021/03/31 05:43:42;;;;;;;4.4;1.3;;;;;;;5.29;72.66113;947.0591;;;;
2021/03/31 05:46:08;;;;;;;2.5;1.3;;;;;;;5.41;72.13965;947.0542;;;;
2021/03/31 05:48:34;;;;;;;5.6;1.6;;;;;;;5.82;70.35645;947.0181;;;;
2021/03/31 05:50:59;;;;;;;1.8;1.3;;;;;;;6.5;67.87695;946.9989;;;;
2021/03/31 05:53:26;;;;;;;9.8;1.9;;;;;;;7.29;64.68262;947.0366;;;;
2021/03/31 05:55:51;;;;;;;3.7;1.5;;;;;;;8.27;61.16113;946.9509;;;;
2021/03/31 05:58:16;;;;;;;2.4;1.4;;;;;;;8.99;57.75977;946.927;;;;
2021/03/31 06:00:41;;;;;;;3.9;1.5;;;;;;;9.97;55.05273;946.9196;;;;
2021/03/31 06:03:07;;;;;;;12.7;2;;;;;;;10.64;52.69238;947.0066;;;;
2021/03/31 06:05:33;;;;;;;4.1;2.2;;;;;;;11.3;50.6123;946.9436;;;;
2021/03/31 06:08:00;;;;;;;8;1.8;;;;;;;12.37;48.27148;946.855;;;;
2021/03/31 06:10:25;;;;;;;2;1.1;;;;;;;13.21;46.2627;946.8808;;;;
2021/03/31 06:12:54;;;;;;;2;1.2;;;;;;;13.79;44.9668;946.8173;;;;
2021/03/31 06:15:25;;;;;;;2.3;1;;;;;;;14.64;41.83887;946.8148;;;;
2021/03/31 06:17:56;;;;;;;4.4;1.5;;;;;;;15.67;39.44238;946.7686;;;;
2021/03/31 06:20:21;;;;;;;3.9;0.7;;;;;;;16.2;38.20605;946.662;;;;
2021/03/31 06:22:54;;;;;;;5;1.2;;;;;;;16.06;37.51172;946.8361;;;;
2021/03/31 06:25:18;;;;;;;5.2;0.9;;;;;;;15.62;38.87207;946.8191;;;;
2021/03/31 06:27:47;;;;;;;4.9;1.2;;;;;;;15.18;40.54004;946.7877;;;;
2021/03/31 06:30:16;;;;;;;2.6;1.5;;;;;;;14.89;40.20215;946.8025;;;;
2021/03/31 06:32:41;;;;;;;1.5;1.2;;;;;;;15.62;39.02246;946.8045;;;;
2021/03/31 06:35:10;;;;;;;11.1;0.7;;;;;;;15.84;37.3418;946.7349;;;;
2021/03/31 06:37:36;;;;;;;7;0.9;;;;;;;16.84;36.4668;946.7352;;;;
2021/03/31 06:40:00;;;;;;;8;1.2;;;;;;;16.46;36.67871;946.7029;;;;
2021/03/31 06:42:26;;;;;;;1.8;0.9;;;;;;;17.09;35.82617;946.6916;;;;
2021/03/31 06:45:01;;;;;;;3.2;1.9;;;;;;;17.01;36.06348;946.6938;;;;
2021/03/31 06:47:19;;;;;;;1;0.5;;;;;;;17.24;34.60938;946.6271;;;;
2021/03/31 06:49:42;;;;;;;1.3;0.8;;;;;;;17.74;33.8252;946.6085;;;;
2021/03/31 06:52:08;;;;;;;4.6;1.3;;;;;;;18.23;33.58398;946.6057;;;;
2021/03/31 06:54:34;;;;;;;9.6;1.1;;;;;;;18.36;33.62793;946.5692;;;;
2021/03/31 06:57:00;;;;;;;8.3;1.4;;;;;;;18.16;32.39258;946.5744;;;;
2021/03/31 06:59:25;;;;;;;4.2;0.7;;;;;;;17.6;32.94336;946.5666;;;;
2021/03/31 07:01:50;;;;;;;1.7;1.3;;;;;;;16.88;33.85059;946.5477;;;;
2021/03/31 07:04:15;;;;;;;1.4;0.8;;;;;;;15.72;35.57617;946.4821;;;;
2021/03/31 07:06:44;;;;;;;0.4;0.4;;;;;;;16.37;35.2002;946.5274;;;;
2021/03/31 07:09:09;;;;;;;1.8;0.9;;;;;;;16.51;34.95703;946.5028;;;;
2021/03/31 07:11:34;;;;;;;6.6;0.7;;;;;;;16.28;34.98535;946.5225;;;;
2021/03/31 07:13:59;;;;;;;1.2;0.6;;;;;;;15.63;36.25;946.5685;;;;
2021/03/31 07:16:28;;;;;;;1.4;0.8;;;;;;;16.04;36.12207;946.5396;;;;
2021/03/31 07:19:01;;;;;;;1.1;0.7;;;;;;;16.87;34.67383;946.4406;;;;
2021/03/31 07:21:30;;;;;;;1;0.7;;;;;;;17.56;32.99902;946.4266;;;;
2021/03/31 07:23:59;;;;;;;0.9;0.6;;;;;;;17.96;32.12305;946.4431;;;;
2021/03/31 07:26:24;;;;;;;2.2;1;;;;;;;19.21;31.02539;946.4348;;;;
2021/03/31 07:28:54;;;;;;;0.5;0.4;;;;;;;19.72;29.34863;946.3912;;;;
2021/03/31 07:31:24;;;;;;;2.9;0.5;;;;;;;20.04;28.45898;946.3583;;;;
2021/03/31 07:33:45;;;;;;;2.1;0.4;;;;;;;20.61;27.99414;946.3247;;;;
2021/03/31 07:36:16;;;;;;;1.3;0.9;;;;;;;21.6;26.91992;946.2768;;;;
2021/03/31 07:38:41;;;;;;;1.4;0.5;;;;;;;22.47;24.84961;946.2878;;;;
2021/03/31 07:41:06;;;;;;;1.7;0.6;;;;;;;22.09;27.32617;946.2942;;;;
2021/03/31 07:43:33;;;;;;;0.7;0.4;;;;;;;21.78;26.29883;946.2628;;;;
2021/03/31 07:45:58;;;;;;;0.4;0.2;;;;;;;22.27;25.1084;946.1972;;;;
2021/03/31 07:48:23;;;;;;;0.4;0.4;;;;;;;22.82;25.84375;946.2182;;;;
2021/03/31 07:50:51;;;;;;;2.2;0.4;;;;;;;23.41;24.62012;946.1628;;;;
2021/03/31 07:53:16;;;;;;;0.3;0.2;;;;;;;23.73;23.17871;946.1716;;;;
2021/03/31 07:55:43;;;;;;;1.8;0.5;;;;;;;24.04;24.08984;946.1802;;;;
2021/03/31 07:58:08;;;;;;;1.6;0.4;;;;;;;23.95;23.99121;946.1679;;;;
2021/03/31 08:00:37;;;;;;;0.3;0.2;;;;;;;24.28;23.78516;946.1365;;;;
2021/03/31 08:03:02;;;;;;;1.9;0.6;;;;;;;25.23;21.60449;946.1138;;;;
2021/03/31 08:05:31;;;;;;;1;0.5;;;;;;;25.73;20.69434;946.1019;;;;
2021/03/31 08:07:55;;;;;;;0.5;0.3;;;;;;;25.99;21.16797;946.103;;;;
2021/03/31 08:10:20;;;;;;;1.5;0.5;;;;;;;26.58;19.50195;946.082;;;;
2021/03/31 08:12:46;;;;;;;2.2;0.4;;;;;;;27.34;19.22656;946.0984;;;;
2021/03/31 08:15:11;;;;;;;0.5;0.5;;;;;;;28.36;18.61719;946.0751;;;;
2021/03/31 08:17:45;;;;;;;1.3;0.6;;;;;;;24.07;22.89063;946.0458;;;;
2021/03/31 08:20:19;;;;;;;0.4;0.4;;;;;;;24.26;23.3125;946.0087;;;;
2021/03/31 08:22:51;;;;;;;0.5;0.2;;;;;;;24.83;22.5752;945.931;;;;
2021/03/31 08:25:23;;;;;;;0.4;0.4;;;;;;;25.94;21.23633;945.8999;;;;
2021/03/31 08:27:48;;;;;;;0.3;0.2;;;;;;;25.93;21.50781;945.887;;;;
2021/03/31 08:30:13;;;;;;;1.8;0.5;;;;;;;27.31;19.2373;945.9196;;;;
2021/03/31 08:32:42;;;;;;;1.2;0.4;;;;;;;26.89;19.58691;945.8915;;;;
2021/03/31 08:35:07;;;;;;;4.2;0.6;;;;;;;27.86;18.5127;945.8469;;;;
2021/03/31 08:37:35;;;;;;;0.4;0.3;;;;;;;28.33;18.65137;945.8137;;;;
2021/03/31 08:40:00;;;;;;;0.6;0.4;;;;;;;28.42;17.6084;945.7871;;;;
2021/03/31 08:42:25;;;;;;;2.3;0.3;;;;;;;28.34;18.11621;945.7697;;;;
2021/03/31 08:44:55;;;;;;;0.8;0.4;;;;;;;27.8;18.61719;945.7511;;;;
2021/03/31 08:47:17;;;;;;;1.1;0.5;;;;;;;28.72;17.92969;945.7488;;;;
2021/03/31 08:49:41;;;;;;;1.1;0.6;;;;;;;27.9;18.52637;945.726;;;;
2021/03/31 08:52:07;;;;;;;4.8;0.8;;;;;;;28.21;18.70508;945.7428;;;;
2021/03/31 08:54:33;;;;;;;0.8;0.5;;;;;;;28.28;18.00781;945.7283;;;;
2021/03/31 08:56:57;;;;;;;1.4;0.4;;;;;;;29.04;16.38281;945.6361;;;;
2021/03/31 08:59:23;;;;;;;1.6;0.4;;;;;;;27.81;17.69141;945.6819;;;;
2021/03/31 09:01:48;;;;;;;3.3;0.6;;;;;;;27.41;18.42285;945.6189;;;;
2021/03/31 09:04:13;;;;;;;0.4;0.4;;;;;;;27.08;18.95508;945.5914;;;;
2021/03/31 09:06:40;;;;;;;0.7;0.4;;;;;;;25.73;19.18164;945.6016;;;;
2021/03/31 09:09:05;;;;;;;0.4;0.3;;;;;;;26.83;19.33496;945.509;;;;
2021/03/31 09:11:30;;;;;;;2;0.7;;;;;;;26.5;19.56934;945.4756;;;;
2021/03/31 09:13:57;;;;;;;1.3;0.5;;;;;;;28.46;20.07129;945.4687;;;;
2021/03/31 09:16:42;;;;;;;0.5;0.4;;;;;;;28.79;18.62305;945.4196;;;;
2021/03/31 09:19:17;;;;;;;1.5;0.8;;;;;;;29.6;16.53418;945.395;;;;
2021/03/31 09:21:51;;;;;;;0.7;0.4;;;;;;;29.36;17.43066;945.3709;;;;
2021/03/31 09:24:20;;;;;;;0.4;0.3;;;;;;;30;17.93262;945.3691;;;;
2021/03/31 09:26:44;;;;;;;4.6;0.6;;;;;;;30.07;15.78809;945.2648;;;;
2021/03/31 09:29:11;;;;;;;0.6;0.5;;;;;;;31.02;16.17871;945.3055;;;;
2021/03/31 09:31:36;;;;;;;0.3;0.3;;;;;;;29.65;17.7168;945.2283;;;;
2021/03/31 09:34:03;;;;;;;4.5;0.8;;;;;;;30.09;16.3252;945.1858;;;;
2021/03/31 09:36:28;;;;;;;1.1;0.6;;;;;;;30.85;15.83887;945.1841;;;;
2021/03/31 09:38:57;;;;;;;0.5;0.4;;;;;;;32.37;14.77637;945.1124;;;;
2021/03/31 09:41:25;;;;;;;0.8;0.6;;;;;;;32.34;15.65137;945.0847;;;;
2021/03/31 09:43:50;;;;;;;0.7;0.4;;;;;;;31.68;15.47266;945.025;;;;
2021/03/31 09:46:16;;;;;;;1.3;0.6;;;;;;;31.86;15.28711;945.0793;;;;
2021/03/31 09:48:43;;;;;;;1.7;0.2;;;;;;;31.87;14.59277;945.0142;;;;
2021/03/31 09:51:08;;;;;;;1.1;0.4;;;;;;;29.89;16.85449;944.9934;;;;
2021/03/31 09:53:35;;;;;;;1.2;0.6;;;;;;;30.2;15.9707;944.9311;;;;
2021/03/31 09:56:00;;;;;;;2.5;0.3;;;;;;;30.71;15.6543;944.9714;;;;
2021/03/31 09:58:25;;;;;;;0.6;0.2;;;;;;;30.71;16.04883;944.9115;;;;
2021/03/31 10:00:51;;;;;;;1.6;0.9;;;;;;;31.43;14.19531;944.8781;;;;
2021/03/31 10:03:17;;;;;;;0.6;0.3;;;;;;;31.18;14.21191;944.8806;;;;
2021/03/31 10:05:42;;;;;;;0.5;0.3;;;;;;;31.12;16.35059;944.7863;;;;
2021/03/31 10:08:20;;;;;;;0.9;0.5;;;;;;;31.66;15.6875;944.7927;;;;
2021/03/31 10:10:34;;;;;;;0.9;0.4;;;;;;;32.64;14.85742;944.7762;;;;
2021/03/31 10:13:01;;;;;;;0.9;0.5;;;;;;;32.06;15.36523;944.6771;;;;
2021/03/31 10:15:42;;;;;;;1.1;0.4;;;;;;;31.48;16.31543;944.68;;;;
2021/03/31 10:18:08;;;;;;;0.7;0.3;;;;;;;31.66;16.32227;944.6309;;;;
2021/03/31 10:20:42;;;;;;;6.3;1;;;;;;;31.45;16.20703;944.6503;;;;
2021/03/31 10:22:59;;;;;;;0.2;0.2;;;;;;;32.04;14.96973;944.5611;;;;
2021/03/31 10:25:26;;;;;;;0.4;0.1;;;;;;;31.94;15.12207;944.5977;;;;
2021/03/31 10:27:51;;;;;;;0.5;0.2;;;;;;;32.19;14.24316;944.5804;;;;
2021/03/31 10:30:18;;;;;;;0.7;0.4;;;;;;;31.68;14.70605;944.5421;;;;
2021/03/31 10:32:45;;;;;;;3;0.6;;;;;;;32.34;14.12793;944.554;;;;
2021/03/31 10:35:11;;;;;;;0.7;0.4;;;;;;;32.12;13.48535;944.5001;;;;
2021/03/31 10:37:38;;;;;;;1.4;0.4;;;;;;;31.41;15.12793;944.4961;;;;
2021/03/31 10:47:23;;;;;;;0.7;0.2;;;;;;;31.75;14.91211;944.3586;;;;
2021/03/31 10:49:45;;;;;;;0.2;0.2;;;;;;;31.99;14.81152;944.3722;;;;
2021/03/31 10:52:09;;;;;;;0.2;0.2;;;;;;;32.19;14.68652;944.3329;;;;
2021/03/31 10:54:35;;;;;;;0.4;0.2;;;;;;;33.26;14.50488;944.2857;;;;
2021/03/31 10:57:08;;;;;;;0.6;0.3;;;;;;;33.88;13.91113;944.3016;;;;
2021/03/31 10:59:25;;;;;;;0.3;0.2;;;;;;;34.32;13.59961;944.2881;;;;
2021/03/31 11:01:50;;;;;;;5.2;0.6;;;;;;;31.92;15.55273;944.2012;;;;
2021/03/31 11:04:15;;;;;;;1.5;0.9;;;;;;;32.14;15.26074;944.1951;;;;
2021/03/31 11:06:41;;;;;;;0.8;0.3;;;;;;;32.03;15.59277;944.1906;;;;
2021/03/31 11:09:06;;;;;;;5;0.4;;;;;;;31.93;14.72559;944.1583;;;;
2021/03/31 11:11:32;;;;;;;0.2;0.2;;;;;;;31.18;16.73535;944.2169;;;;
2021/03/31 11:14:00;;;;;;;0.3;0.3;;;;;;;30.64;16.75098;944.1312;;;;
2021/03/31 11:16:27;;;;;;;2.8;0.8;;;;;;;30.66;17.1582;944.1053;;;;
2021/03/31 11:19:00;;;;;;;0.8;0.4;;;;;;;30.44;16.31445;944.0527;;;;
2021/03/31 11:26:07;;;;;;;4.1;0.5;;;;;;;30.15;17.24609;944.0101;;;;
2021/03/31 11:28:37;;;;;;;0.9;0.5;;;;;;;30.67;16.57324;943.9639;;;;
2021/03/31 11:30:59;;;;;;;0.2;0.2;;;;;;;30.47;16.8291;943.8748;;;;
2021/03/31 11:33:26;;;;;;;0.9;0.3;;;;;;;30.27;17.32227;943.8738;;;;
2021/03/31 11:35:51;;;;;;;1.2;0.6;;;;;;;29.77;18.73438;943.8312;;;;
2021/03/31 11:38:17;;;;;;;1.4;0.7;;;;;;;29.74;19.26953;943.8577;;;;
2021/03/31 11:40:42;;;;;;;0.8;0.4;;;;;;;29.7;18.79102;943.7784;;;;
2021/03/31 11:43:11;;;;;;;0.8;0.4;;;;;;;28.7;18.8916;943.7283;;;;
2021/03/31 11:45:34;;;;;;;0.6;0.2;;;;;;;28.17;19.20313;943.7745;;;;
2021/03/31 11:48:00;;;;;;;0.4;0.2;;;;;;;28.34;20.06641;943.702;;;;
2021/03/31 11:50:26;;;;;;;1.3;0.8;;;;;;;27.74;20.49023;943.7455;;;;
2021/03/31 11:52:52;;;;;;;0.1;0.1;;;;;;;27.48;21.1543;943.7043;;;;
2021/03/31 11:55:17;;;;;;;0.5;0.2;;;;;;;27.85;20.23438;943.6912;;;;
2021/03/31 11:57:46;;;;;;;0.3;0.3;;;;;;;27.9;20.48535;943.6471;;;;
2021/03/31 12:00:11;;;;;;;1;0.3;;;;;;;27.15;21.36426;943.6183;;;;
2021/03/31 12:02:36;;;;;;;0.3;0.2;;;;;;;27.77;21.14453;943.5829;;;;
2021/03/31 12:05:01;;;;;;;1.1;0.4;;;;;;;28.17;19.88086;943.5901;;;;
2021/03/31 12:07:28;;;;;;;1.8;1;;;;;;;28.48;19.96484;943.4918;;;;
2021/03/31 12:09:52;;;;;;;0.3;0.3;;;;;;;28.1;19.97266;943.4702;;;;
2021/03/31 12:12:18;;;;;;;0.4;0.3;;;;;;;27.47;20.64453;943.486;;;;
2021/03/31 12:14:43;;;;;;;0.9;0.4;;;;;;;27.67;21.54297;943.4708;;;;
2021/03/31 12:17:11;;;;;;;1.1;0.7;;;;;;;27.19;21.24805;943.4753;;;;
2021/03/31 12:19:36;;;;;;;0.6;0.4;;;;;;;26.97;22.24512;943.4341;;;;
2021/03/31 12:22:01;;;;;;;1.5;0.3;;;;;;;27.25;22.00977;943.407;;;;
2021/03/31 12:24:26;;;;;;;1.1;0.7;;;;;;;27.45;21.91309;943.3839;;;;
2021/03/31 12:26:52;;;;;;;0.9;0.4;;;;;;;27.38;21.58887;943.311;;;;
2021/03/31 12:29:17;;;;;;;1;0.6;;;;;;;27.05;22.9248;943.2871;;;;
2021/03/31 12:31:42;;;;;;;0.4;0.4;;;;;;;26.53;24.46094;943.3093;;;;
2021/03/31 12:34:09;;;;;;;0.7;0.5;;;;;;;26.18;24.98633;943.296;;;;
2021/03/31 12:36:34;;;;;;;0.8;0.3;;;;;;;26.08;24.61426;943.3191;;;;
2021/03/31 12:39:00;;;;;;;0.6;0.4;;;;;;;25.79;24.05469;943.308;;;;
2021/03/31 12:41:25;;;;;;;0.2;0.2;;;;;;;25.52;24.84277;943.2558;;;;
2021/03/31 12:43:55;;;;;;;0.3;0.2;;;;;;;25.25;26.36328;943.293;;;;
2021/03/31 12:46:23;;;;;;;0.6;0.5;;;;;;;25.53;25.13867;943.1573;;;;
2021/03/31 12:48:48;;;;;;;1.9;0.7;;;;;;;25.62;24.11523;943.1301;;;;
2021/03/31 12:51:19;;;;;;;0.6;0.3;;;;;;;25.75;25.81348;943.1694;;;;
2021/03/31 12:53:43;;;;;;;0.5;0.5;;;;;;;25.64;25.15723;943.1083;;;;
2021/03/31 12:56:08;;;;;;;0.4;0.3;;;;;;;25.36;25.64844;943.0305;;;;
2021/03/31 12:58:38;;;;;;;0.6;0.3;;;;;;;25.18;26.02832;943.1358;;;;
2021/03/31 13:01:03;;;;;;;1.7;0.4;;;;;;;25.05;25.77246;943.0544;;;;
2021/03/31 13:03:23;;;;;;;3.8;1.2;;;;;;;25.17;25.14258;943.0775;;;;
2021/03/31 13:05:48;;;;;;;2.2;0.6;;;;;;;25.09;26.49512;943.0259;;;;
2021/03/31 13:08:14;;;;;;;3;0.6;;;;;;;25.17;25.81543;943.0457;;;;
2021/03/31 13:10:41;;;;;;;1.8;0.6;;;;;;;25.07;25.5498;943.0154;;;;
2021/03/31 13:13:09;;;;;;;0.3;0.2;;;;;;;25.21;25.00293;942.9611;;;;
2021/03/31 13:15:45;;;;;;;13.1;0.6;;;;;;;25.3;25.47949;942.9472;;;;
2021/03/31 13:22:00;;;;;;;0.4;0.3;;;;;;;25.18;27.33789;942.9231;;;;
2021/03/31 13:23:04;;;;;;;2.4;1;;;;;;;25.35;26.71094;942.8547;;;;
2021/03/31 13:25:29;;;;;;;2.3;0.6;;;;;;;25.04;25.20605;942.8331;;;;
2021/03/31 13:30:25;;;;;;;0.9;0.5;;;;;;;24.67;26.87109;942.7302;;;;
2021/03/31 13:32:45;;;;;;;2;0.6;;;;;;;24.39;27.49023;942.74;;;;
2021/03/31 13:35:13;;;;;;;3.8;1.2;;;;;;;24.52;25.88379;942.6809;;;;
2021/03/31 13:37:39;;;;;;;0.5;0.3;;;;;;;24.77;25.63867;942.7321;;;;
2021/03/31 13:40:02;;;;;;;2.7;0.7;;;;;;;24.91;25.89453;942.7425;;;;
2021/03/31 13:42:26;;;;;;;0.5;0.3;;;;;;;24.94;26.72168;942.6591;;;;
2021/03/31 13:44:51;;;;;;;0.7;0.5;;;;;;;25.12;24.79785;942.6776;;;;
2021/03/31 13:47:21;;;;;;;1.3;0.7;;;;;;;25.29;24.91309;942.5796;;;;
2021/03/31 13:49:49;;;;;;;0.8;0.4;;;;;;;25.29;24.45215;942.597;;;;
2021/03/31 13:52:16;;;;;;;1.9;0.7;;;;;;;25.26;25.92676;942.5678;;;;
2021/03/31 13:54:39;;;;;;;0.6;0.4;;;;;;;25.12;25.00977;942.5383;;;;
2021/03/31 13:57:00;;;;;;;0.3;0.3;;;;;;;24.92;25.76563;942.5619;;;;
2021/03/31 13:59:28;;;;;;;5.2;0.4;;;;;;;24.98;24.37598;942.5245;;;;
2021/03/31 14:01:52;;;;;;;1.2;0.5;;;;;;;24.87;24.47656;942.5287;;;;
2021/03/31 14:04:17;;;;;;;1.2;0.6;;;;;;;24.9;24.77344;942.5131;;;;
2021/03/31 14:06:43;;;;;;;0.5;0.5;;;;;;;24.73;25.05859;942.4877;;;;
2021/03/31 14:09:08;;;;;;;2.4;0.7;;;;;;;24.83;23.40039;942.4243;;;;
2021/03/31 14:11:33;;;;;;;0.9;0.6;;;;;;;24.74;24.54004;942.4253;;;;
2021/03/31 14:14:00;;;;;;;4.2;0.8;;;;;;;24.67;24.38281;942.3325;;;;
2021/03/31 14:16:31;;;;;;;1.8;0.7;;;;;;;24.64;24.26367;942.3592;;;;
2021/03/31 14:18:48;;;;;;;1.2;0.8;;;;;;;24.63;25.08789;942.3251;;;;
2021/03/31 14:21:13;;;;;;;2.4;1;;;;;;;24.3;25.5293;942.2673;;;;
2021/03/31 14:23:43;;;;;;;1.4;0.8;;;;;;;24.29;25.81152;942.305;;;;
2021/03/31 14:26:09;;;;;;;3.2;0.6;;;;;;;24.14;25.86133;942.2358;;;;
2021/03/31 14:28:34;;;;;;;2.4;0.9;;;;;;;24.18;25.86328;942.2394;;;;
2021/03/31 14:31:02;;;;;;;0.4;0.3;;;;;;;24.1;24.92871;942.1764;;;;
2021/03/31 14:33:27;;;;;;;1.7;0.8;;;;;;;24.23;25.5957;942.1498;;;;
2021/03/31 14:35:55;;;;;;;5.9;0.6;;;;;;;24.19;25.26367;942.1339;;;;
2021/03/31 14:38:20;;;;;;;1;0.5;;;;;;;23.96;26.25098;942.0632;;;;
2021/03/31 14:40:45;;;;;;;2.2;1.1;;;;;;;24.02;26.29004;942.1414;;;;
2021/03/31 14:43:10;;;;;;;1.8;0.7;;;;;;;23.96;26.12207;942.146;;;;
2021/03/31 14:45:36;;;;;;;0.6;0.4;;;;;;;23.96;25.17969;942.1039;;;;
2021/03/31 14:48:01;;;;;;;1;0.4;;;;;;;23.94;25.47266;942.1063;;;;